Tuckerton, Pennsylvania
Current Conditions -  °F | °C
As of 10:54 PM on Wednesday 22 Oct 2014 (Local Time) from KRDG Reporting Station
Overcast Overcast  
Wind Chill: 53°   Ceiling: 2800
Heat Index: 53°   Visibility: 10mi
Dew Point: 44°   Wind: 15mph
Humidity: 71%   Direction: 330°NNW
Pressure: 29.88"   Gusts: 25mph
Location:  40.3999°N, 75.9335°W
Report Text: KRDG 230254Z 33013G22KT 10SM OVC028 12/07 A2988 RMK AO2 RAE10 SLP122 P0000 60000 T01170067 58010
Loading
Personal Weather Stations






























Interactive Weather Map
Tropical Storm Tracking
New forecast layout! Learn more

10-Day Weather Forecast

Advertisements
Track Severe Weather on mobile